TimeMST,TemperatureF,Dew PointF,Humidity,Sea Level PressureIn,VisibilityMPH,Wind Direction,Wind SpeedMPH,Gust SpeedMPH,PrecipitationIn,Events,Conditions,WindDirDegrees,DateUTC
12:55 AM,35.4,20.8,55,30.18,10.0,West,3.5,-,N/A,,Overcast,280,2013-03-02 07:55:00
1:55 AM,36.9,25.0,62,30.16,10.0,WSW,5.8,-,N/A,,Overcast,250,2013-03-02 08:55:00
2:55 AM,39.2,27.3,62,30.14,10.0,West,5.8,-,N/A,,Overcast,280,2013-03-02 09:55:00
3:55 AM,39.0,28.8,67,30.14,10.0,West,3.5,-,N/A,,Clear,280,2013-03-02 10:55:00
4:55 AM,35.8,26.8,70,30.15,10.0,SW,4.6,-,N/A,,Clear,230,2013-03-02 11:55:00
5:55 AM,39.9,28.2,63,30.16,10.0,West,4.6,-,N/A,,Clear,280,2013-03-02 12:55:00
6:55 AM,38.7,29.1,69,30.17,10.0,WSW,5.8,-,N/A,,Clear,250,2013-03-02 13:55:00
7:55 AM,45.1,31.3,58,30.17,10.0,West,3.5,-,N/A,,Clear,270,2013-03-02 14:55:00
8:55 AM,54.5,30.4,40,30.14,10.0,NNW,18.4,26.5,N/A,,Clear,330,2013-03-02 15:55:00
9:55 AM,55.0,30.2,39,30.15,10.0,NNW,20.7,25.3,N/A,,Partly Cloudy,340,2013-03-02 16:55:00
10:55 AM,55.8,30.0,37,30.14,10.0,NNW,16.1,-,N/A,,Overcast,340,2013-03-02 17:55:00
11:55 AM,57.4,29.7,35,30.10,10.0,NNW,17.3,-,N/A,,Mostly Cloudy,330,2013-03-02 18:55:00
12:55 PM,58.8,29.7,33,30.07,10.0,NNW,18.4,25.3,N/A,,Mostly Cloudy,340,2013-03-02 19:55:00
1:55 PM,60.1,28.9,31,30.04,10.0,NW,18.4,24.2,N/A,,Clear,320,2013-03-02 20:55:00
2:55 PM,60.6,29.1,30,30.02,10.0,North,10.4,23.0,N/A,,Partly Cloudy,350,2013-03-02 21:55:00
3:55 PM,60.8,28.6,29,30.01,10.0,NNW,16.1,-,N/A,,Partly Cloudy,330,2013-03-02 22:55:00
4:55 PM,57.0,27.0,32,30.03,10.0,NW,15.0,-,N/A,,Clear,320,2013-03-02 23:55:00
5:55 PM,50.5,26.6,39,30.04,10.0,NNW,8.1,-,N/A,,Clear,330,2013-03-03 00:55:00
6:55 PM,44.6,26.1,48,30.04,10.0,NW,5.8,-,N/A,,Clear,320,2013-03-03 01:55:00
7:55 PM,42.1,25.2,51,30.01,10.0,WSW,5.8,-,N/A,,Clear,250,2013-03-03 02:55:00
8:55 PM,39.7,25.0,56,29.98,10.0,West,6.9,-,N/A,,Clear,260,2013-03-03 03:55:00
9:55 PM,42.1,25.2,51,29.94,10.0,West,10.4,-,N/A,,Clear,260,2013-03-03 04:55:00
10:55 PM,41.9,25.7,53,29.90,10.0,West,5.8,-,N/A,,Mostly Cloudy,260,2013-03-03 05:55:00
11:55 PM,42.4,26.2,53,29.87,10.0,Calm,Calm,-,N/A,,Mostly Cloudy,0,2013-03-03 06:55:00